Time;durP1;ratioP1;P1;durP2;ratioP2;P2;SDS_P1;SDS_P2;PMS_P1;PMS_P2;Temp;Humidity;BMP_temperature;BMP_pressure;BME280_temperature;BME280_humidity;BME280_pressure;Samples;Min_cycle;Max_cycle;Signal;HPM_P1;HPM_P2
2022/10/28 00:00:30;;;;;;;15.18;11.20;;;;;;;11.75;100.00;101456.53;5014161;28;20050;-84
2022/10/28 00:03:00;;;;;;;14.90;11.10;;;;;;;11.85;100.00;101457.31;4997421;28;20046;-80
2022/10/28 00:05:28;;;;;;;16.77;10.98;;;;;;;11.89;100.00;101464.34;5020316;28;20029;-81
2022/10/28 00:07:55;;;;;;;16.88;10.05;;;;;;;11.84;100.00;101469.69;4999125;28;20049;-80
2022/10/28 00:10:22;;;;;;;13.30;9.98;;;;;;;11.82;100.00;101475.91;5010701;28;20045;-80
2022/10/28 00:12:48;;;;;;;21.17;10.85;;;;;;;11.92;100.00;101471.38;5014959;28;20052;-80
2022/10/28 00:15:15;;;;;;;15.02;8.73;;;;;;;12.04;100.00;101463.28;5008813;28;20108;-80
2022/10/28 00:17:42;;;;;;;13.80;8.32;;;;;;;12.02;100.00;101473.00;5009322;28;20041;-80
2022/10/28 00:20:09;;;;;;;12.63;9.02;;;;;;;11.93;100.00;101468.69;5035487;28;20037;-80
2022/10/28 00:22:36;;;;;;;12.90;9.07;;;;;;;12.05;100.00;101457.09;5000257;28;20037;-80
2022/10/28 00:25:03;;;;;;;13.40;9.18;;;;;;;12.00;100.00;101461.56;5034287;28;20030;-80
2022/10/28 00:27:32;;;;;;;12.55;9.38;;;;;;;12.08;100.00;101455.25;5031848;28;20569;-80
2022/10/28 00:29:59;;;;;;;13.55;9.40;;;;;;;11.99;100.00;101457.16;5017710;28;20128;-80
2022/10/28 00:32:29;;;;;;;13.65;9.57;;;;;;;12.08;100.00;101462.31;5017498;28;20041;-80
2022/10/28 00:34:57;;;;;;;12.85;8.88;;;;;;;12.06;100.00;101450.88;4998224;28;20038;-81
2022/10/28 00:37:29;;;;;;;13.37;10.03;;;;;;;12.02;100.00;101446.50;5014745;28;20116;-80
2022/10/28 00:39:56;;;;;;;12.43;8.98;;;;;;;12.00;100.00;101458.91;4999652;28;20045;-80
2022/10/28 00:42:22;;;;;;;11.82;8.63;;;;;;;11.98;100.00;101445.69;5015852;28;20048;-80
2022/10/28 00:44:58;;;;;;;10.95;8.77;;;;;;;12.06;100.00;101445.59;5015554;28;20041;-80
2022/10/28 00:47:32;;;;;;;14.15;9.02;;;;;;;12.13;100.00;101439.31;5031351;28;20033;-80
2022/10/28 00:50:23;;;;;;;13.45;8.13;;;;;;;12.09;100.00;101441.09;5014635;28;20525;-80
2022/10/28 00:52:54;;;;;;;10.52;8.13;;;;;;;12.08;100.00;101436.72;5015789;28;20045;-80
2022/10/28 00:55:22;;;;;;;11.75;8.15;;;;;;;11.98;100.00;101428.94;5000038;28;20052;-80
2022/10/28 00:57:49;;;;;;;14.02;8.20;;;;;;;11.86;100.00;101429.97;5031237;28;20434;-80
2022/10/28 01:00:16;;;;;;;11.73;8.45;;;;;;;11.84;100.00;101435.28;4998585;28;20049;-80
2022/10/28 01:02:47;;;;;;;11.15;8.35;;;;;;;11.86;100.00;101429.13;5020650;28;20505;-82
2022/10/28 01:05:18;;;;;;;11.63;7.90;;;;;;;11.97;100.00;101443.06;4992110;28;20575;-83
2022/10/28 01:07:45;;;;;;;10.40;8.60;;;;;;;11.82;100.00;101445.00;5013454;28;20056;-83
2022/10/28 01:10:12;;;;;;;13.20;7.38;;;;;;;11.79;100.00;101438.88;4995642;28;20473;-83
2022/10/28 01:12:46;;;;;;;12.25;8.13;;;;;;;11.70;100.00;101434.56;5012186;28;20122;-83
2022/10/28 01:15:44;;;;;;;10.88;8.13;;;;;;;11.63;100.00;101432.88;4995897;28;20061;-82
2022/10/28 01:18:36;;;;;;;13.27;7.95;;;;;;;11.57;100.00;101432.94;5007837;28;20494;-82
2022/10/28 01:21:40;;;;;;;13.50;8.35;;;;;;;11.52;100.00;101430.38;4995436;28;20037;-83
2022/10/28 01:24:47;;;;;;;12.35;8.35;;;;;;;11.52;100.00;101424.22;5008121;28;20065;-81
2022/10/28 01:27:35;;;;;;;17.27;8.85;;;;;;;11.43;100.00;101419.88;5028111;28;20098;-82
2022/10/28 01:30:20;;;;;;;14.32;9.48;;;;;;;11.53;100.00;101415.38;5005509;28;20030;-84
2022/10/28 01:32:59;;;;;;;16.20;9.27;;;;;;;11.50;100.00;101410.09;4991830;28;20080;-83
2022/10/28 01:35:38;;;;;;;12.32;8.63;;;;;;;11.48;100.00;101406.59;5022356;28;20107;-84
2022/10/28 01:38:18;;;;;;;13.15;8.55;;;;;;;11.62;100.00;101411.75;5014506;28;20048;-84
2022/10/28 01:40:54;;;;;;;9.52;7.53;;;;;;;11.51;100.00;101411.84;4982133;28;20041;-82
2022/10/28 01:43:25;;;;;;;13.52;8.05;;;;;;;11.48;100.00;101409.25;4996991;28;20041;-83
2022/10/28 01:46:04;;;;;;;11.93;7.60;;;;;;;11.57;100.00;101417.06;5012456;28;20049;-82
2022/10/28 01:48:47;;;;;;;10.52;8.35;;;;;;;11.43;100.00;101403.13;4994648;28;20045;-83
2022/10/28 01:51:41;;;;;;;12.23;8.82;;;;;;;11.43;100.00;101405.78;4993496;28;20122;-84
2022/10/28 01:54:08;;;;;;;12.73;7.95;;;;;;;11.41;100.00;101383.75;5002214;28;20045;-83
2022/10/28 01:56:39;;;;;;;11.95;8.65;;;;;;;11.43;100.00;101393.41;5012805;28;20037;-82
2022/10/28 01:59:12;;;;;;;12.40;8.65;;;;;;;11.44;100.00;101387.25;5010912;28;20415;-83
2022/10/28 02:01:39;;;;;;;11.85;8.43;;;;;;;11.33;100.00;101389.13;4992190;28;20049;-83
2022/10/28 02:04:06;;;;;;;12.45;8.65;;;;;;;11.23;100.00;101398.09;5014153;28;20378;-84
2022/10/28 02:06:33;;;;;;;10.65;7.88;;;;;;;11.20;100.00;101398.13;5007033;28;21004;-83
2022/10/28 02:09:31;;;;;;;11.85;8.02;;;;;;;11.20;100.00;101391.06;4997695;28;20060;-82
2022/10/28 02:12:21;;;;;;;9.93;7.80;;;;;;;11.17;100.00;101391.06;4997744;28;20045;-82
2022/10/28 02:15:18;;;;;;;10.48;6.88;;;;;;;11.12;100.00;101400.84;4997708;28;20560;-85
2022/10/28 02:18:06;;;;;;;11.20;8.40;;;;;;;11.08;100.00;101387.66;5012525;28;20038;-84
2022/10/28 02:20:34;;;;;;;9.90;7.25;;;;;;;11.00;100.00;101385.97;5013864;28;20446;-83
2022/10/28 02:23:14;;;;;;;11.35;7.43;;;;;;;10.97;100.00;101395.72;4996665;28;20049;-84
2022/10/28 02:25:45;;;;;;;10.50;7.78;;;;;;;10.99;100.00;101391.28;5043934;28;20041;-82
2022/10/28 02:28:16;;;;;;;10.57;8.32;;;;;;;10.95;100.00;101392.22;4996291;28;20052;-84
2022/10/28 02:30:59;;;;;;;10.88;8.23;;;;;;;10.95;100.00;101402.81;4996202;28;20041;-82
2022/10/28 02:33:30;;;;;;;11.27;7.38;;;;;;;10.91;100.00;101403.72;5013554;28;20109;-83
2022/10/28 02:36:00;;;;;;;10.00;7.60;;;;;;;10.91;100.00;101404.59;4999034;28;20042;-83
2022/10/28 02:38:32;;;;;;;10.30;7.38;;;;;;;10.89;100.00;101405.50;5018885;28;20037;-82
2022/10/28 02:41:02;;;;;;;10.43;7.30;;;;;;;10.84;100.00;101396.72;5037656;28;20030;-84
2022/10/28 02:43:31;;;;;;;13.80;8.23;;;;;;;10.86;100.00;101395.84;4997066;28;20045;-84
2022/10/28 02:46:01;;;;;;;10.75;7.53;;;;;;;10.81;100.00;101399.41;5015408;28;20049;-84
2022/10/28 02:48:32;;;;;;;9.02;7.35;;;;;;;10.78;100.00;101399.44;4994903;28;20045;-83
2022/10/28 02:51:08;;;;;;;8.77;6.80;;;;;;;10.71;100.00;101409.19;5001332;28;20073;-83
2022/10/28 02:53:49;;;;;;;10.15;7.10;;;;;;;10.67;100.00;101410.09;5000378;28;20079;-84
2022/10/28 02:56:16;;;;;;;11.27;7.60;;;;;;;10.64;100.00;101400.44;5011211;28;20076;-82
2022/10/28 02:58:43;;;;;;;8.15;6.72;;;;;;;10.62;100.00;101406.63;4997681;28;20053;-83
2022/10/28 03:01:10;;;;;;;9.90;7.50;;;;;;;10.58;100.00;101399.59;5016490;28;20064;-83
2022/10/28 03:03:37;;;;;;;9.10;6.97;;;;;;;10.56;100.00;101399.63;5010508;28;20421;-83
2022/10/28 03:06:04;;;;;;;11.10;7.68;;;;;;;10.52;100.00;101400.56;5004208;28;20045;-82
2022/10/28 03:08:30;;;;;;;8.95;7.25;;;;;;;10.50;100.00;101397.03;5000608;28;20041;-83
2022/10/28 03:10:57;;;;;;;8.23;6.63;;;;;;;10.51;100.00;101404.09;5016686;28;20490;-84
2022/10/28 03:13:23;;;;;;;8.77;6.68;;;;;;;10.47;100.00;101407.63;5016724;28;20041;-83
2022/10/28 03:15:50;;;;;;;8.35;6.80;;;;;;;10.45;100.00;101400.63;5016282;28;20069;-83
2022/10/28 03:18:17;;;;;;;9.45;7.43;;;;;;;10.45;100.00;101392.69;4991382;28;20124;-83
2022/10/28 03:20:46;;;;;;;11.65;7.50;;;;;;;10.45;100.00;101392.69;4997585;28;20045;-84
2022/10/28 03:23:13;;;;;;;9.15;7.80;;;;;;;10.41;100.00;101392.69;5007276;28;20182;-82
2022/10/28 03:25:39;;;;;;;9.80;7.28;;;;;;;10.39;100.00;101391.84;5005096;28;20040;-82
2022/10/28 03:28:06;;;;;;;10.32;6.93;;;;;;;10.36;100.00;101391.88;5003932;28;20048;-81
2022/10/28 03:30:33;;;;;;;9.18;7.15;;;;;;;10.32;100.00;101384.84;5024126;28;20037;-82
2022/10/28 03:32:59;;;;;;;10.82;7.55;;;;;;;10.32;100.00;101382.22;4999912;28;20103;-83
2022/10/28 03:35:26;;;;;;;8.57;6.85;;;;;;;10.27;100.00;101388.44;5023224;28;20309;-83
2022/10/28 03:37:53;;;;;;;8.80;6.57;;;;;;;10.22;100.00;101396.38;5052046;28;20041;-82
2022/10/28 03:40:19;;;;;;;9.48;6.97;;;;;;;10.23;100.00;101391.97;5003025;28;20044;-83
2022/10/28 03:42:46;;;;;;;10.60;7.00;;;;;;;10.19;100.00;101384.94;4999810;28;20469;-85
2022/10/28 03:45:12;;;;;;;10.98;7.20;;;;;;;10.19;100.00;101395.50;5016267;28;20499;-81
2022/10/28 03:47:39;;;;;;;11.57;7.78;;;;;;;10.19;100.00;101403.44;5013893;28;20498;-84
2022/10/28 03:50:06;;;;;;;12.20;7.28;;;;;;;10.19;100.00;101395.50;5030282;28;20493;-83
2022/10/28 03:52:33;;;;;;;10.60;7.72;;;;;;;10.19;100.00;101377.03;5019096;28;20064;-83
2022/10/28 03:55:00;;;;;;;10.38;7.82;;;;;;;10.20;100.00;101384.06;5024763;28;20559;-84
2022/10/28 03:57:30;;;;;;;10.70;7.00;;;;;;;10.17;100.00;101379.66;5042398;28;20088;-82
2022/10/28 03:59:57;;;;;;;9.65;6.93;;;;;;;10.18;100.00;101389.34;5031413;28;20044;-82
2022/10/28 04:02:23;;;;;;;7.35;6.55;;;;;;;10.14;100.00;101383.19;4998913;28;20049;-82
2022/10/28 04:04:50;;;;;;;11.55;7.90;;;;;;;10.14;100.00;101388.47;5015352;28;20037;-82
2022/10/28 04:07:17;;;;;;;10.95;7.90;;;;;;;10.12;100.00;101376.19;5016740;28;20043;-83
2022/10/28 04:09:43;;;;;;;11.40;7.70;;;;;;;10.13;100.00;101376.16;4998299;28;20399;-82
2022/10/28 04:12:10;;;;;;;9.65;7.40;;;;;;;10.13;100.00;101373.53;4997983;28;20056;-82
2022/10/28 04:14:37;;;;;;;12.02;7.57;;;;;;;10.10;100.00;101378.84;4997593;28;20045;-82
2022/10/28 04:17:03;;;;;;;12.18;8.10;;;;;;;10.11;100.00;101388.50;5009529;28;20038;-82
2022/10/28 04:19:30;;;;;;;11.98;7.93;;;;;;;10.10;100.00;101389.41;5011463;28;20042;-82
2022/10/28 04:21:56;;;;;;;9.32;7.85;;;;;;;10.12;100.00;101381.47;5014868;28;20072;-80
2022/10/28 04:24:23;;;;;;;11.90;8.20;;;;;;;10.12;100.00;101387.63;4998726;28;20033;-81
2022/10/28 04:26:50;;;;;;;11.00;8.05;;;;;;;10.12;100.00;101378.81;5021620;28;20041;-81
2022/10/28 04:29:16;;;;;;;11.25;7.78;;;;;;;10.12;100.00;101381.47;5016275;28;20095;-81
2022/10/28 04:31:43;;;;;;;11.60;8.20;;;;;;;10.12;100.00;101384.97;4997312;28;20108;-81
2022/10/28 04:34:14;;;;;;;12.50;8.48;;;;;;;10.15;100.00;101381.44;5028669;28;20088;-80
2022/10/28 04:36:40;;;;;;;16.42;8.93;;;;;;;10.06;100.00;101387.66;5026037;28;20425;-82
2022/10/28 04:39:08;;;;;;;12.75;8.13;;;;;;;10.06;100.00;101378.84;5019547;28;20041;-81
2022/10/28 04:41:35;;;;;;;9.77;7.35;;;;;;;10.04;100.00;101386.78;5016841;28;20042;-81
2022/10/28 04:44:01;;;;;;;9.70;6.63;;;;;;;9.98;100.00;101378.91;5015798;28;20091;-81
2022/10/28 04:46:28;;;;;;;7.88;6.38;;;;;;;9.96;100.00;101383.31;4999268;28;20072;-80
2022/10/28 04:48:54;;;;;;;7.75;6.68;;;;;;;9.96;100.00;101378.03;5013831;28;20110;-81
2022/10/28 04:51:21;;;;;;;9.27;6.95;;;;;;;9.94;100.00;101373.66;5025160;28;20049;-81
2022/10/28 04:53:48;;;;;;;9.73;6.72;;;;;;;9.91;100.00;101364.00;5006550;28;20045;-81
2022/10/28 04:56:14;;;;;;;10.18;6.32;;;;;;;9.89;100.00;101357.84;5014556;28;20060;-81
2022/10/28 04:58:41;;;;;;;10.27;6.35;;;;;;;9.87;100.00;101351.72;5032094;28;20072;-82
2022/10/28 05:01:09;;;;;;;9.57;6.97;;;;;;;9.91;100.00;101339.34;5033488;28;20033;-81
2022/10/28 05:03:36;;;;;;;9.75;7.30;;;;;;;9.86;100.00;101336.78;5033174;28;20495;-80
2022/10/28 05:06:06;;;;;;;9.55;6.72;;;;;;;9.83;100.00;101323.56;5021911;28;20041;-82
2022/10/28 05:08:33;;;;;;;8.13;7.10;;;;;;;9.83;100.00;101323.56;5009280;28;20532;-82
2022/10/28 05:11:00;;;;;;;8.55;6.28;;;;;;;9.83;100.00;101328.84;5004285;28;20061;-81
2022/10/28 05:13:26;;;;;;;9.93;7.25;;;;;;;9.84;100.00;101333.28;5001061;28;20037;-81
2022/10/28 05:15:53;;;;;;;14.65;9.23;;;;;;;9.85;100.00;101337.66;5048710;28;20041;-81
2022/10/28 05:18:20;;;;;;;11.82;8.07;;;;;;;9.83;100.00;101324.44;5051933;28;20567;-81
2022/10/28 05:20:51;;;;;;;11.48;8.50;;;;;;;9.86;100.00;101324.44;5016131;28;20057;-81
2022/10/28 05:23:18;;;;;;;13.40;8.70;;;;;;;9.87;100.00;101333.25;5019665;28;20042;-81
2022/10/28 05:25:45;;;;;;;12.88;8.45;;;;;;;9.95;100.00;101328.78;5017342;28;20076;-82
2022/10/28 05:28:11;;;;;;;14.75;8.77;;;;;;;9.97;100.00;101329.66;5015859;28;20132;-81
2022/10/28 05:30:38;;;;;;;11.68;7.07;;;;;;;9.98;100.00;101330.50;4999909;28;20384;-82
2022/10/28 05:33:05;;;;;;;9.38;7.03;;;;;;;9.98;100.00;101333.16;5010152;28;20038;-81
2022/10/28 05:35:32;;;;;;;9.60;6.97;;;;;;;10.01;100.00;101330.50;5030260;28;20064;-82
2022/10/28 05:38:01;;;;;;;12.70;7.05;;;;;;;10.01;100.00;101326.09;5012717;28;20105;-81
2022/10/28 05:40:28;;;;;;;10.40;6.57;;;;;;;10.04;100.00;101326.06;5015110;28;20144;-82
2022/10/28 05:42:55;;;;;;;11.07;7.75;;;;;;;10.10;100.00;101320.75;5042410;28;20033;-82
2022/10/28 05:45:22;;;;;;;10.40;6.80;;;;;;;10.10;100.00;101320.75;5015275;28;20076;-81
2022/10/28 05:47:49;;;;;;;10.73;7.22;;;;;;;10.10;100.00;101319.88;5014252;28;20038;-82
2022/10/28 05:50:17;;;;;;;13.48;7.60;;;;;;;10.11;100.00;101322.50;5029835;28;20049;-81
2022/10/28 05:52:49;;;;;;;10.35;7.72;;;;;;;10.14;100.00;101322.47;5015845;28;20049;-81
2022/10/28 05:55:20;;;;;;;12.18;8.02;;;;;;;10.16;100.00;101319.81;5009606;28;20037;-81
2022/10/28 05:57:48;;;;;;;12.20;8.43;;;;;;;10.18;100.00;101304.84;5015156;28;20073;-82
2022/10/28 06:00:16;;;;;;;10.43;7.30;;;;;;;10.20;100.00;101310.13;5014870;28;20471;-82
2022/10/28 06:02:43;;;;;;;10.15;7.72;;;;;;;10.26;100.00;101307.47;5014895;28;20115;-82
2022/10/28 06:05:11;;;;;;;8.65;6.35;;;;;;;10.27;100.00;101288.97;5015318;28;20044;-82
2022/10/28 06:07:38;;;;;;;10.25;6.75;;;;;;;10.40;100.00;101292.34;5040816;28;20212;-82
2022/10/28 06:10:06;;;;;;;9.10;7.45;;;;;;;10.59;100.00;101291.25;5017376;28;20041;-82
2022/10/28 06:12:33;;;;;;;7.47;6.57;;;;;;;10.49;100.00;101289.59;5019087;28;20050;-82
2022/10/28 06:15:06;;;;;;;9.82;7.10;;;;;;;10.42;100.00;101266.78;5024660;28;20040;-82
2022/10/28 06:17:33;;;;;;;9.93;6.30;;;;;;;10.47;100.00;101253.53;5029155;28;20108;-81
2022/10/28 06:20:00;;;;;;;10.15;7.60;;;;;;;10.56;100.00;101256.06;5022336;28;20490;-81
2022/10/28 06:22:26;;;;;;;16.35;9.82;;;;;;;10.90;100.00;101256.56;5038570;28;20127;-82
2022/10/28 06:24:53;;;;;;;11.55;8.00;;;;;;;10.81;100.00;101248.75;5029543;28;20068;-82
2022/10/28 06:27:20;;;;;;;11.98;8.80;;;;;;;10.77;100.00;101286.69;5034397;28;20046;-82
2022/10/28 06:29:46;;;;;;;14.93;10.10;;;;;;;10.84;100.00;101277.78;5034914;28;20053;-82
2022/10/28 06:32:13;;;;;;;13.88;9.23;;;;;;;10.89;100.00;101265.38;5018571;28;20570;-82
2022/10/28 06:34:40;;;;;;;17.70;10.27;;;;;;;11.12;100.00;101299.50;4999300;28;20046;-83
2022/10/28 06:37:09;;;;;;;18.45;10.10;;;;;;;11.21;100.00;101318.75;5031832;28;20095;-81
2022/10/28 06:39:37;;;;;;;11.57;8.23;;;;;;;11.42;100.00;101343.16;5019898;28;20486;-81
2022/10/28 06:42:04;;;;;;;19.05;7.43;;;;;;;11.22;100.00;101335.50;4999634;28;20041;-83
2022/10/28 06:44:31;;;;;;;14.18;9.48;;;;;;;11.26;100.00;101308.09;4990004;28;20103;-82
2022/10/28 06:46:57;;;;;;;10.23;7.75;;;;;;;11.21;100.00;101329.34;5018230;28;20045;-82
2022/10/28 06:49:24;;;;;;;11.93;8.27;;;;;;;11.21;100.00;101324.03;5016829;28;20048;-82
2022/10/28 06:51:51;;;;;;;10.98;8.60;;;;;;;11.23;100.00;101338.13;5023154;28;20048;-83
2022/10/28 06:54:18;;;;;;;10.77;8.70;;;;;;;11.23;100.00;101324.91;5002004;28;20045;-82
2022/10/28 06:56:46;;;;;;;16.08;8.90;;;;;;;11.27;100.00;101325.75;5001980;28;20042;-82
2022/10/28 06:59:13;;;;;;;13.82;9.32;;;;;;;11.43;100.00;101329.03;5018513;28;20057;-82
2022/10/28 07:01:40;;;;;;;12.05;9.00;;;;;;;11.43;100.00;101335.22;5035688;28;20060;-81
2022/10/28 07:04:09;;;;;;;13.00;9.07;;;;;;;11.45;100.00;101316.69;5002464;28;20042;-82
2022/10/28 07:06:36;;;;;;;13.77;9.35;;;;;;;11.48;100.00;101335.16;5018177;28;20046;-82
2022/10/28 07:09:03;;;;;;;12.13;8.55;;;;;;;11.58;100.00;101326.19;5043391;28;20068;-81
2022/10/28 07:11:30;;;;;;;13.75;8.38;;;;;;;11.63;100.00;101316.44;5028498;28;20047;-82
2022/10/28 07:13:57;;;;;;;12.00;8.13;;;;;;;11.97;100.00;101327.44;5017756;28;20056;-82
2022/10/28 07:16:23;;;;;;;10.55;7.47;;;;;;;11.86;100.00;101325.84;5001082;28;20044;-82
2022/10/28 07:18:50;;;;;;;10.35;7.55;;;;;;;11.87;100.00;101323.19;5035602;28;20502;-82
2022/10/28 07:21:17;;;;;;;8.80;7.13;;;;;;;11.89;100.00;101328.44;4997165;28;20053;-83
2022/10/28 07:23:45;;;;;;;10.80;7.18;;;;;;;12.02;100.00;101338.84;5002106;28;20481;-81
2022/10/28 07:26:12;;;;;;;20.50;8.75;;;;;;;12.00;100.00;101337.97;4998779;28;20049;-82
2022/10/28 07:28:41;;;;;;;9.00;7.25;;;;;;;12.05;100.00;101329.97;4999756;28;20072;-82
2022/10/28 07:31:08;;;;;;;11.38;7.72;;;;;;;12.06;100.00;101321.97;5015668;28;20030;-82
2022/10/28 07:33:35;;;;;;;14.18;8.20;;;;;;;12.15;100.00;101331.56;5017427;28;20094;-82
2022/10/28 07:36:03;;;;;;;11.23;6.97;;;;;;;12.19;100.00;101341.22;4999537;28;20490;-82
2022/10/28 07:38:30;;;;;;;11.30;7.55;;;;;;;12.27;100.00;101362.25;5014677;28;20482;-82
2022/10/28 07:40:57;;;;;;;9.15;7.15;;;;;;;12.40;100.00;101370.00;4999173;28;20041;-82
2022/10/28 07:43:23;;;;;;;11.70;7.68;;;;;;;12.53;100.00;101380.41;5029141;28;20047;-82
2022/10/28 07:45:57;;;;;;;13.15;8.75;;;;;;;12.72;100.00;101399.50;4997868;28;20125;-82
2022/10/28 07:48:24;;;;;;;13.77;9.00;;;;;;;12.85;100.00;101409.84;5000866;28;20549;-82
2022/10/28 07:50:54;;;;;;;12.85;7.95;;;;;;;12.95;100.00;101419.41;5016241;28;20047;-80
2022/10/28 07:53:20;;;;;;;11.77;8.50;;;;;;;12.98;100.00;101421.13;5000584;28;20091;-80
2022/10/28 07:55:57;;;;;;;11.80;7.72;;;;;;;13.06;100.00;101419.22;5033932;28;20511;-81
2022/10/28 07:58:24;;;;;;;13.75;7.40;;;;;;;13.01;100.00;101399.84;4997996;28;20136;-81
2022/10/28 08:00:52;;;;;;;10.95;7.78;;;;;;;13.02;100.00;101411.31;5012877;28;20041;-83
2022/10/28 08:03:19;;;;;;;9.43;6.60;;;;;;;13.04;100.00;101410.41;5017182;28;20034;-81
2022/10/28 08:05:46;;;;;;;10.38;7.30;;;;;;;13.00;100.00;101397.22;5000341;28;20041;-80
2022/10/28 08:08:12;;;;;;;10.57;6.57;;;;;;;13.00;100.00;101373.34;5002529;28;20493;-80
2022/10/28 08:10:39;;;;;;;11.40;7.95;;;;;;;13.02;100.00;101376.84;5017118;28;20087;-80
2022/10/28 08:13:06;;;;;;;10.07;6.05;;;;;;;12.98;100.00;101394.59;5000789;28;20045;-81
2022/10/28 08:15:33;;;;;;;9.13;6.72;;;;;;;12.96;100.00;101384.03;4999601;28;20037;-83
2022/10/28 08:17:59;;;;;;;9.63;6.93;;;;;;;12.93;100.00;101354.88;4996564;28;20045;-83
2022/10/28 08:20:26;;;;;;;11.55;7.05;;;;;;;12.92;100.00;101353.16;4997730;28;20079;-82
2022/10/28 08:22:53;;;;;;;14.13;8.10;;;;;;;12.93;100.00;101314.22;4981790;28;20099;-83
2022/10/28 08:25:20;;;;;;;11.55;7.90;;;;;;;13.05;100.00;101273.34;4985849;28;20044;-84
2022/10/28 08:27:47;;;;;;;10.88;7.80;;;;;;;13.07;100.00;101259.13;4994549;28;20042;-83
2022/10/28 08:30:14;;;;;;;9.93;7.22;;;;;;;13.03;100.00;101256.56;4998644;28;20053;-83
2022/10/28 08:32:41;;;;;;;9.90;6.53;;;;;;;13.10;100.00;101231.66;5014202;28;20098;-83
2022/10/28 08:35:08;;;;;;;10.73;6.72;;;;;;;13.26;100.00;101230.44;4990768;28;20053;-83
2022/10/28 08:37:35;;;;;;;11.68;7.30;;;;;;;13.18;100.00;101254.47;4993210;28;21356;-83
2022/10/28 08:40:02;;;;;;;11.57;7.55;;;;;;;13.23;100.00;101251.75;4992128;28;20046;-84
2022/10/28 08:42:36;;;;;;;10.55;7.65;;;;;;;13.23;100.00;101241.16;4996165;28;20041;-83
2022/10/28 08:45:21;;;;;;;9.55;7.13;;;;;;;13.29;100.00;101248.97;5011031;28;20057;-83
2022/10/28 08:48:10;;;;;;;12.80;7.40;;;;;;;13.41;100.00;101240.72;5030408;28;20069;-83
2022/10/28 08:50:48;;;;;;;10.88;7.55;;;;;;;13.54;100.00;101230.72;5014313;28;20049;-83
2022/10/28 08:53:40;;;;;;;10.60;7.32;;;;;;;13.68;100.00;101248.94;4997646;28;20069;-84
2022/10/28 08:56:13;;;;;;;11.57;7.63;;;;;;;13.90;100.00;101244.88;4985490;28;20045;-83
2022/10/28 08:58:42;;;;;;;10.00;7.75;;;;;;;14.16;100.00;101253.97;5023108;28;20063;-84
2022/10/28 09:01:17;;;;;;;11.10;7.13;;;;;;;14.28;100.00;101249.19;5005754;28;20037;-84
2022/10/28 09:03:45;;;;;;;11.55;6.80;;;;;;;14.45;100.00;101246.09;5014549;28;20045;-84
2022/10/28 09:06:12;;;;;;;9.18;6.45;;;;;;;14.55;100.00;101255.59;5015670;28;20125;-84
2022/10/28 09:08:47;;;;;;;10.00;5.68;;;;;;;14.74;100.00;101261.28;4997693;28;20114;-84
2022/10/28 09:11:42;;;;;;;10.60;5.75;;;;;;;14.92;100.00;101260.75;5013551;28;20127;-83
2022/10/28 09:14:27;;;;;;;9.63;5.63;;;;;;;15.02;100.00;101258.69;4998587;28;20128;-83
2022/10/28 09:17:11;;;;;;;9.27;6.05;;;;;;;15.08;100.00;101258.53;5016549;28;20124;-83
2022/10/28 09:19:47;;;;;;;7.40;5.95;;;;;;;15.15;100.00;101252.09;4994197;28;20131;-83
2022/10/28 09:22:32;;;;;;;10.60;5.95;;;;;;;15.40;100.00;101248.69;5013958;28;20148;-83
2022/10/28 09:25:02;;;;;;;8.95;5.75;;;;;;;15.60;100.00;101250.72;5003268;28;20128;-83
2022/10/28 09:27:57;;;;;;;7.72;5.45;;;;;;;15.81;100.00;101262.50;5013461;28;20079;-83
2022/10/28 09:30:51;;;;;;;9.13;5.15;;;;;;;15.80;100.00;101274.94;5013331;28;20045;-83
2022/10/28 09:33:33;;;;;;;11.15;4.47;;;;;;;15.86;100.00;101272.09;5007352;28;20064;-82
2022/10/28 09:36:02;;;;;;;8.10;4.80;;;;;;;15.99;100.00;101267.25;5015553;28;20088;-83
2022/10/28 09:38:33;;;;;;;8.75;4.70;;;;;;;16.15;100.00;101281.81;4999681;28;20046;-82
2022/10/28 09:41:19;;;;;;;7.97;5.50;;;;;;;16.47;100.00;101279.81;4998876;28;20120;-83
2022/10/28 09:44:08;;;;;;;7.43;4.30;;;;;;;16.60;100.00;101279.34;5002228;28;20132;-84
2022/10/28 09:46:36;;;;;;;8.70;4.82;;;;;;;16.88;100.00;101268.56;5016077;28;20133;-84
2022/10/28 09:49:20;;;;;;;8.52;4.70;;;;;;;17.05;100.00;101277.75;5020049;28;20041;-83
2022/10/28 09:51:53;;;;;;;8.07;4.67;;;;;;;17.24;100.00;101278.81;5018068;28;20041;-84
2022/10/28 09:54:37;;;;;;;8.15;4.68;;;;;;;17.32;100.00;101279.38;5021643;28;20287;-82
2022/10/28 09:57:04;;;;;;;;;;;;;;;17.19;100.00;101274.56;5004977;28;20490;-82
2022/10/28 09:59:31;;;;;;;7.70;4.65;;;;;;;17.18;100.00;101271.03;5008794;28;20324;-84
2022/10/28 10:01:57;;;;;;;9.82;4.93;;;;;;;17.12;100.00;101272.13;5054271;28;20513;-83
2022/10/28 10:04:26;;;;;;;9.32;4.45;;;;;;;17.03;100.00;101264.44;5037331;28;20107;-83
2022/10/28 10:07:10;;;;;;;7.18;4.57;;;;;;;17.19;100.00;101262.06;5019857;28;20115;-84
2022/10/28 10:09:38;;;;;;;5.93;4.88;;;;;;;17.40;100.00;101255.91;5003966;28;20465;-84
2022/10/28 10:12:09;;;;;;;8.43;4.70;;;;;;;17.61;100.00;101267.53;5020060;28;20049;-84
2022/10/28 10:14:39;;;;;;;8.00;4.93;;;;;;;17.73;100.00;101258.19;5027322;28;20103;-84
2022/10/28 10:17:21;;;;;;;7.28;4.38;;;;;;;17.85;100.00;101264.84;5003287;28;20038;-84
2022/10/28 10:20:04;;;;;;;5.07;4.25;;;;;;;17.94;100.00;101260.00;5019850;28;20418;-84
2022/10/28 10:22:34;;;;;;;12.85;4.55;;;;;;;18.12;100.00;101265.50;5020430;28;20573;-84
2022/10/28 10:25:02;;;;;;;8.57;4.40;;;;;;;18.27;100.00;101262.19;5003556;28;20037;-84
2022/10/28 10:27:30;;;;;;;7.60;4.60;;;;;;;18.43;100.00;101263.25;5003686;28;20044;-85
2022/10/28 10:29:57;;;;;;;5.90;4.32;;;;;;;18.47;100.00;101264.84;5037005;28;20046;-85
2022/10/28 10:32:31;;;;;;;10.00;4.93;;;;;;;18.60;100.00;101258.97;5003662;28;20045;-83
2022/10/28 10:35:27;;;;;;;9.07;4.82;;;;;;;18.65;100.00;101257.84;5012823;28;20040;-84
2022/10/28 10:37:55;;;;;;;8.23;4.20;;;;;;;18.77;100.00;101246.59;5014334;28;20049;-83
2022/10/28 10:40:32;;;;;;;6.35;3.88;;;;;;;18.57;100.00;101250.13;5019615;28;20109;-83
2022/10/28 10:43:21;;;;;;;6.80;4.30;;;;;;;18.48;100.00;101255.88;5017045;28;20045;-84
2022/10/28 10:45:57;;;;;;;5.07;4.00;;;;;;;18.51;100.00;101242.38;5000478;28;20038;-84
2022/10/28 10:48:24;;;;;;;6.65;4.38;;;;;;;18.61;100.00;101231.28;5036893;28;20449;-85
2022/10/28 10:50:51;;;;;;;7.80;4.25;;;;;;;18.62;100.00;101227.66;5013772;28;20096;-84
2022/10/28 10:53:24;;;;;;;7.32;4.35;;;;;;;18.71;100.00;101229.94;5021606;28;20494;-83
2022/10/28 10:56:07;;;;;;;6.97;3.63;;;;;;;18.70;100.00;101229.09;4998381;28;20080;-82
2022/10/28 10:58:39;;;;;;;6.28;3.50;;;;;;;18.90;100.00;101221.94;5013984;28;20045;-83
2022/10/28 11:01:07;;;;;;;8.32;3.72;;;;;;;19.16;100.00;101221.59;5031299;28;20041;-82
2022/10/28 11:03:58;;;;;;;8.40;3.90;;;;;;;19.38;100.00;101221.44;5038395;28;20045;-82
2022/10/28 11:06:26;;;;;;;5.82;3.75;;;;;;;19.32;99.36;101211.03;4999491;28;20422;-82
2022/10/28 11:08:56;;;;;;;9.45;4.45;;;;;;;19.30;100.00;101216.47;5015515;28;20143;-82
2022/10/28 11:11:34;;;;;;;10.50;4.70;;;;;;;19.23;100.00;101209.66;5031356;28;20102;-82
2022/10/28 11:14:23;;;;;;;6.20;3.83;;;;;;;19.13;100.00;101211.03;4998643;28;20041;-84
2022/10/28 11:16:49;;;;;;;7.00;3.95;;;;;;;19.13;100.00;101208.34;5007969;28;20053;-83
2022/10/28 11:19:23;;;;;;;7.28;4.97;;;;;;;19.32;100.00;101205.66;5012128;28;20794;-84
2022/10/28 11:22:05;;;;;;;7.88;4.32;;;;;;;19.28;100.00;101201.41;5020298;28;20049;-83
2022/10/28 11:25:02;;;;;;;9.32;4.50;;;;;;;19.41;99.46;101194.50;5002751;28;20052;-82
2022/10/28 11:28:07;;;;;;;8.85;4.68;;;;;;;19.50;99.90;101199.41;5016968;28;20510;-83
2022/10/28 11:30:47;;;;;;;9.10;4.18;;;;;;;19.57;99.80;101200.88;5019292;28;20133;-81